createdAt,value
2018-02-19T00:01:01.303Z,81.46
2018-02-19T00:03:29.741Z,81.34
2018-02-19T00:05:58.223Z,81.04
2018-02-19T00:08:26.654Z,80.82
2018-02-19T00:10:55.076Z,80.82
2018-02-19T00:13:23.522Z,80.95
2018-02-19T00:15:51.958Z,80.67
2018-02-19T00:18:20.998Z,80.79
2018-02-19T00:20:49.699Z,80.46
2018-02-19T00:23:18.077Z,80.41
2018-02-19T00:25:46.491Z,80.16
2018-02-19T00:28:14.941Z,80.38
2018-02-19T00:30:43.366Z,80.27
2018-02-19T00:33:11.899Z,80.11
2018-02-19T00:35:40.279Z,79.98
2018-02-19T00:38:08.666Z,80.08
2018-02-19T00:40:37.083Z,80.05
2018-02-19T00:43:05.466Z,80.17
2018-02-19T00:45:34.593Z,79.98
2018-02-19T00:48:03.753Z,80.07
2018-02-19T00:50:32.148Z,80.13
2018-02-19T00:53:00.561Z,80.39
2018-02-19T00:55:28.957Z,80.31
2018-02-19T00:57:57.336Z,80.55
2018-02-19T01:00:25.726Z,80.73
2018-02-19T01:02:54.196Z,80.46
2018-02-19T01:05:22.580Z,80.85
2018-02-19T01:07:51.142Z,80.89
2018-02-19T01:10:19.511Z,80.62
2018-02-19T01:12:47.942Z,80.64
2018-02-19T01:15:16.340Z,80.47
2018-02-19T01:17:44.754Z,80.58
2018-02-19T01:20:13.121Z,80.70
2018-02-19T01:22:42.256Z,80.80
2018-02-19T01:25:10.663Z,81.23
2018-02-19T01:27:39.067Z,81.62
2018-02-19T01:30:08.290Z,81.10
2018-02-19T01:32:36.665Z,80.97
2018-02-19T01:35:05.069Z,80.92
2018-02-19T01:37:33.438Z,80.90
2018-02-19T01:40:01.833Z,80.86
2018-02-19T01:42:30.289Z,81.29
2018-02-19T01:44:58.693Z,81.37
2018-02-19T01:47:27.068Z,81.32
2018-02-19T01:50:13.215Z,81.49
2018-02-19T01:52:42.344Z,81.35
2018-02-19T01:55:10.732Z,81.29
2018-02-19T01:57:39.101Z,81.49
2018-02-19T02:00:07.506Z,81.36
2018-02-19T02:02:35.896Z,81.38
2018-02-19T02:05:05.881Z,81.34
2018-02-19T02:07:34.277Z,81.91
2018-02-19T02:10:02.651Z,82.13
2018-02-19T02:12:31.048Z,82.59
2018-02-19T02:14:59.418Z,82.46
2018-02-19T02:17:28.614Z,82.89
2018-02-19T02:19:56.990Z,83.60
2018-02-19T02:22:25.383Z,83.71
2018-02-19T02:24:53.826Z,84.13
2018-02-19T02:27:22.298Z,83.86
2018-02-19T02:29:50.690Z,83.96
2018-02-19T02:32:19.078Z,83.94
2018-02-19T02:34:47.597Z,83.63
2018-02-19T02:37:16.757Z,83.36
2018-02-19T02:39:45.149Z,83.08
2018-02-19T02:42:13.567Z,82.84
2018-02-19T02:44:41.956Z,82.59
2018-02-19T02:47:10.335Z,82.66
2018-02-19T02:49:38.735Z,82.36
2018-02-19T02:52:07.133Z,82.03
2018-02-19T02:54:35.526Z,82.02
2018-02-19T02:57:03.925Z,82.04
2018-02-19T02:59:33.090Z,81.86
2018-02-19T03:02:01.493Z,81.78
2018-02-19T03:04:30.666Z,81.62
2018-02-19T03:06:59.098Z,81.48
2018-02-19T03:09:27.595Z,81.43
2018-02-19T03:11:55.964Z,81.09
2018-02-19T03:14:24.367Z,80.96
2018-02-19T03:16:52.811Z,81.07
2018-02-19T03:19:21.971Z,81.16
2018-02-19T03:21:50.369Z,80.95
2018-02-19T03:24:18.731Z,80.68
2018-02-19T03:26:47.146Z,80.83
2018-02-19T03:29:15.635Z,80.85
2018-02-19T03:31:44.028Z,80.78
2018-02-19T03:34:12.442Z,80.92
2018-02-19T03:36:40.812Z,80.80
2018-02-19T03:39:09.222Z,81.01
2018-02-19T03:41:38.368Z,80.86
2018-02-19T03:44:06.770Z,80.91
2018-02-19T03:46:35.185Z,81.02
2018-02-19T03:49:03.586Z,81.48
2018-02-19T03:51:31.953Z,81.26
2018-02-19T03:54:00.337Z,81.63
2018-02-19T03:56:28.726Z,81.92
2018-02-19T03:58:57.130Z,82.33
2018-02-19T04:01:25.500Z,82.81
2018-02-19T04:03:53.891Z,82.73
2018-02-19T04:06:22.266Z,83.00
2018-02-19T04:08:50.666Z,82.89
2018-02-19T04:11:19.058Z,82.81
2018-02-19T04:13:47.476Z,83.26
2018-02-19T04:16:15.861Z,83.23
2018-02-19T04:18:44.264Z,83.09
2018-02-19T04:21:12.674Z,83.80
2018-02-19T04:23:41.049Z,83.32
2018-02-19T04:26:09.430Z,83.19
2018-02-19T04:28:37.825Z,83.98
2018-02-19T04:31:07.006Z,84.31
2018-02-19T04:33:35.412Z,84.97
2018-02-19T04:36:03.789Z,85.30
2018-02-19T04:38:32.183Z,85.26
2018-02-19T04:41:00.575Z,85.14
2018-02-19T04:43:28.953Z,85.08
2018-02-19T04:46:03.349Z,85.01
2018-02-19T04:48:37.034Z,85.18
2018-02-19T04:51:06.206Z,84.99
2018-02-19T04:53:34.640Z,84.99
2018-02-19T04:56:03.117Z,84.70
2018-02-19T04:58:31.552Z,84.26
2018-02-19T05:00:59.940Z,84.03
2018-02-19T05:03:29.197Z,83.91
2018-02-19T05:05:57.625Z,83.54
2018-02-19T05:08:26.868Z,83.16
2018-02-19T05:10:55.259Z,82.94
2018-02-19T05:13:23.671Z,82.82
2018-02-19T05:15:52.049Z,82.69
2018-02-19T05:18:20.412Z,82.71
2018-02-19T05:20:48.828Z,82.59
2018-02-19T05:23:18.062Z,82.39
2018-02-19T05:25:46.479Z,82.36
2018-02-19T05:28:14.894Z,82.72
2018-02-19T05:30:43.261Z,82.56
2018-02-19T05:33:12.418Z,82.81
2018-02-19T05:35:40.816Z,82.54
2018-02-19T05:38:09.953Z,82.44
2018-02-19T05:40:38.351Z,82.45
2018-02-19T05:43:06.787Z,82.34
2018-02-19T05:45:35.945Z,82.21
2018-02-19T05:48:04.303Z,82.09
2018-02-19T05:50:32.680Z,82.39
2018-02-19T05:53:01.087Z,82.34
2018-02-19T05:55:29.462Z,82.29
2018-02-19T05:57:57.842Z,82.57
2018-02-19T06:00:26.259Z,83.43
2018-02-19T06:02:55.417Z,83.86
2018-02-19T06:05:23.797Z,83.84
2018-02-19T06:07:52.172Z,83.70
2018-02-19T06:10:20.565Z,83.71
2018-02-19T06:12:48.969Z,83.83
2018-02-19T06:15:18.121Z,83.68
2018-02-19T06:17:46.584Z,83.63
2018-02-19T06:20:15.006Z,83.42
2018-02-19T06:22:43.383Z,83.23
2018-02-19T06:25:11.757Z,83.33
2018-02-19T06:27:40.165Z,83.55
2018-02-19T06:30:09.318Z,83.61
2018-02-19T06:32:37.715Z,83.36
2018-02-19T06:35:06.089Z,83.17
2018-02-19T06:37:34.474Z,82.99
2018-02-19T06:40:02.877Z,82.80
2018-02-19T06:42:31.311Z,82.71
2018-02-19T06:44:59.682Z,82.24
2018-02-19T06:47:28.037Z,83.47
2018-02-19T06:49:56.436Z,82.55
2018-02-19T06:52:24.816Z,82.48
2018-02-19T06:54:53.232Z,82.25
2018-02-19T06:57:22.423Z,82.14
2018-02-19T06:59:50.819Z,81.91
2018-02-19T07:02:20.012Z,81.75
2018-02-19T07:04:49.192Z,81.33
2018-02-19T07:07:17.565Z,81.14
2018-02-19T07:09:45.954Z,81.19
2018-02-19T07:12:15.122Z,81.08
2018-02-19T07:14:43.510Z,80.65
2018-02-19T07:17:11.904Z,80.45
2018-02-19T07:19:40.266Z,80.26
2018-02-19T07:22:08.670Z,79.91
2018-02-19T07:24:37.830Z,79.48
2018-02-19T07:27:06.209Z,79.42
2018-02-19T07:29:34.600Z,79.30
2018-02-19T07:32:02.981Z,79.36
2018-02-19T07:34:31.389Z,78.83
2018-02-19T07:37:00.518Z,79.04
2018-02-19T07:39:28.892Z,79.01
2018-02-19T07:41:57.284Z,78.76
2018-02-19T07:44:25.672Z,78.51
2018-02-19T07:46:54.085Z,78.46
2018-02-19T07:49:22.477Z,78.10
2018-02-19T07:51:51.619Z,77.95
2018-02-19T07:54:20.024Z,77.44
2018-02-19T07:56:48.470Z,76.93
2018-02-19T07:59:16.853Z,77.07
2018-02-19T08:01:45.269Z,76.39
2018-02-19T08:04:13.660Z,77.56
2018-02-19T08:06:42.802Z,75.71
2018-02-19T08:09:11.203Z,75.90
2018-02-19T08:11:39.666Z,76.44
2018-02-19T08:14:08.061Z,76.21
2018-02-19T08:16:36.450Z,73.67
2018-02-19T08:19:04.837Z,73.53
2018-02-19T08:21:33.237Z,73.03
2018-02-19T08:24:02.398Z,72.88
2018-02-19T08:26:30.775Z,73.40
2018-02-19T08:28:59.158Z,72.88
2018-02-19T08:31:27.587Z,73.30
2018-02-19T08:33:55.955Z,72.94
2018-02-19T08:36:25.097Z,72.60
2018-02-19T08:38:53.533Z,72.52
2018-02-19T08:41:21.890Z,72.41
2018-02-19T08:43:50.290Z,72.77
2018-02-19T08:46:18.801Z,72.55
2018-02-19T08:48:47.205Z,71.30
2018-02-19T08:51:15.590Z,70.84
2018-02-19T08:53:44.020Z,69.79
2018-02-19T08:56:12.406Z,70.29
2018-02-19T08:58:40.786Z,69.06
2018-02-19T09:01:09.173Z,70.49
2018-02-19T09:03:37.541Z,68.23
2018-02-19T09:06:05.947Z,68.82
2018-02-19T09:08:34.316Z,70.94
2018-02-19T09:11:02.688Z,67.55
2018-02-19T09:13:31.078Z,67.12
2018-02-19T09:15:59.461Z,67.46
2018-02-19T09:18:27.861Z,66.00
2018-02-19T09:20:56.236Z,66.14
2018-02-19T09:23:24.648Z,66.26
2018-02-19T09:25:53.778Z,67.31
2018-02-19T09:28:22.177Z,67.78
2018-02-19T09:30:50.558Z,64.84
2018-02-19T09:33:18.948Z,65.86
2018-02-19T09:35:47.362Z,66.37
2018-02-19T09:38:15.740Z,64.29
2018-02-19T09:40:44.121Z,63.20
2018-02-19T09:43:12.642Z,63.43
2018-02-19T09:45:41.063Z,64.58
2018-02-19T09:48:10.194Z,63.52
2018-02-19T09:50:38.574Z,65.30
2018-02-19T09:53:06.966Z,62.02
2018-02-19T09:55:35.335Z,61.88
2018-02-19T09:58:03.733Z,61.67
2018-02-19T10:00:32.127Z,63.08
2018-02-19T10:03:00.546Z,63.09
2018-02-19T10:05:29.712Z,62.07
2018-02-19T10:07:58.045Z,61.79
2018-02-19T10:10:26.448Z,60.55
2018-02-19T10:12:54.902Z,60.57
2018-02-19T10:15:23.256Z,64.12
2018-02-19T10:17:52.429Z,60.75
2018-02-19T10:20:20.793Z,61.06
2018-02-19T10:22:49.245Z,61.04
2018-02-19T10:25:17.645Z,60.78
2018-02-19T10:27:46.024Z,62.89
2018-02-19T10:30:14.389Z,62.54
2018-02-19T10:35:17.387Z,62.85
2018-02-19T10:37:45.766Z,62.79
2018-02-19T10:40:14.141Z,62.39
2018-02-19T10:42:42.607Z,60.65
2018-02-19T10:45:11.008Z,61.28
2018-02-19T10:47:39.382Z,61.29
2018-02-19T10:50:07.784Z,61.51
2018-02-19T10:52:36.162Z,61.84
2018-02-19T10:55:04.541Z,60.73
2018-02-19T10:57:33.722Z,61.61
2018-02-19T11:00:02.141Z,61.25
2018-02-19T11:02:30.499Z,60.36
2018-02-19T11:04:58.891Z,61.74
2018-02-19T11:07:27.249Z,62.48
2018-02-19T11:09:55.643Z,61.79
2018-02-19T11:12:24.085Z,61.63
2018-02-19T11:14:52.463Z,61.45
2018-02-19T11:17:20.865Z,60.79
2018-02-19T11:19:49.232Z,60.92
2018-02-19T11:22:17.652Z,60.09
2018-02-19T11:24:46.834Z,60.70
2018-02-19T11:27:15.985Z,60.99
2018-02-19T11:29:44.374Z,60.03
2018-02-19T11:32:12.788Z,59.91
2018-02-19T11:34:41.944Z,59.67
2018-02-19T11:37:10.322Z,60.85
2018-02-19T11:39:38.715Z,60.65
2018-02-19T11:42:07.095Z,60.19
2018-02-19T11:44:35.476Z,59.93
2018-02-19T11:47:03.866Z,59.32
2018-02-19T11:49:32.321Z,59.21
2018-02-19T11:52:00.697Z,58.94
2018-02-19T11:54:29.075Z,57.73
2018-02-19T11:56:57.473Z,58.61
2018-02-19T11:59:25.851Z,58.92
2018-02-19T12:01:54.222Z,60.15
2018-02-19T12:04:22.652Z,59.08
2018-02-19T12:06:51.800Z,58.75
2018-02-19T12:09:20.186Z,59.21
2018-02-19T12:11:48.605Z,59.97
2018-02-19T12:14:17.720Z,58.78
2018-02-19T12:16:46.095Z,58.79
2018-02-19T12:19:14.478Z,58.20
2018-02-19T12:21:42.846Z,59.74
2018-02-19T12:24:11.233Z,59.27
2018-02-19T12:26:39.608Z,58.52
2018-02-19T12:29:08.098Z,58.33
2018-02-19T12:31:36.477Z,57.20
2018-02-19T12:34:04.870Z,56.72
2018-02-19T12:36:33.338Z,55.63
2018-02-19T12:39:01.731Z,55.64
2018-02-19T12:41:30.094Z,56.50
2018-02-19T12:43:58.471Z,56.24
2018-02-19T12:46:26.874Z,55.53
2018-02-19T12:48:56.017Z,55.73
2018-02-19T12:51:25.141Z,56.01
2018-02-19T12:53:53.581Z,55.22
2018-02-19T12:56:22.007Z,55.16
2018-02-19T12:58:50.401Z,55.45
2018-02-19T13:01:18.765Z,57.58
2018-02-19T13:06:44.266Z,57.65
2018-02-19T13:09:12.654Z,57.61
2018-02-19T13:18:52.702Z,57.55
2018-02-19T13:21:21.154Z,56.41
2018-02-19T13:23:49.566Z,56.32
2018-02-19T13:26:17.996Z,56.29
2018-02-19T13:28:46.414Z,55.73
2018-02-19T13:31:14.793Z,57.20
2018-02-19T13:33:43.203Z,58.02
2018-02-19T13:36:12.453Z,57.67
2018-02-19T13:38:40.841Z,57.85
2018-02-19T13:41:09.254Z,58.30
2018-02-19T13:43:39.043Z,58.34
2018-02-19T13:46:07.447Z,58.01
2018-02-19T13:48:35.834Z,58.08
2018-02-19T13:51:04.986Z,58.35
2018-02-19T13:53:33.365Z,59.31
2018-02-19T13:56:01.756Z,59.21
2018-02-19T13:58:30.169Z,58.95
2018-02-19T14:00:59.305Z,59.80
2018-02-19T14:03:27.668Z,59.78
2018-02-19T14:05:56.481Z,59.01
2018-02-19T14:08:24.871Z,60.13
2018-02-19T14:10:54.045Z,59.82
2018-02-19T14:13:22.414Z,59.82
2018-02-19T14:15:50.807Z,61.23
2018-02-19T14:18:19.535Z,60.26
2018-02-19T14:20:48.713Z,59.41
2018-02-19T14:23:17.137Z,56.45
2018-02-19T14:25:46.288Z,55.71
2018-02-19T14:28:14.667Z,55.49
2018-02-19T14:30:43.081Z,56.38
2018-02-19T14:33:12.476Z,55.76
2018-02-19T14:35:40.969Z,54.97
2018-02-19T14:38:09.379Z,55.73
2018-02-19T14:40:38.861Z,56.09
2018-02-19T14:43:08.323Z,56.70
2018-02-19T14:45:36.954Z,56.35
2018-02-19T14:48:05.532Z,56.63
2018-02-19T14:50:34.767Z,57.89
2018-02-19T14:53:03.273Z,58.15
2018-02-19T14:55:31.727Z,57.91
2018-02-19T14:58:00.179Z,57.21
2018-02-19T15:00:28.606Z,57.04
2018-02-19T15:02:56.979Z,56.10
2018-02-19T15:05:25.358Z,57.80
2018-02-19T15:07:53.822Z,56.36
2018-02-19T15:10:22.320Z,57.33
2018-02-19T15:12:50.704Z,57.97
2018-02-19T15:15:19.155Z,57.50
2018-02-19T15:17:47.546Z,57.07
2018-02-19T15:20:15.914Z,57.52
2018-02-19T15:22:44.293Z,58.17
2018-02-19T15:25:12.671Z,59.10
2018-02-19T15:27:41.070Z,59.84
2018-02-19T15:30:09.597Z,59.98
2018-02-19T15:32:38.756Z,60.54
2018-02-19T15:35:07.174Z,60.64
2018-02-19T15:37:36.344Z,61.29
2018-02-19T15:40:04.707Z,61.03
2018-02-19T15:42:33.160Z,61.58
2018-02-19T15:45:01.540Z,61.63
2018-02-19T15:47:29.917Z,62.15
2018-02-19T15:49:58.336Z,62.19
2018-02-19T15:52:26.706Z,62.33
2018-02-19T15:54:55.070Z,62.00
2018-02-19T15:57:23.449Z,62.28
2018-02-19T15:59:51.817Z,62.61
2018-02-19T16:02:20.206Z,63.36
2018-02-19T16:04:48.584Z,63.54
2018-02-19T16:07:16.965Z,63.33
2018-02-19T16:09:45.437Z,63.95
2018-02-19T16:12:13.799Z,63.77
2018-02-19T16:14:42.168Z,63.74
2018-02-19T16:17:10.566Z,63.83
2018-02-19T16:19:38.940Z,64.07
2018-02-19T16:22:07.391Z,64.67
2018-02-19T16:24:35.790Z,64.51
2018-02-19T16:27:04.162Z,64.92
2018-02-19T16:29:32.556Z,68.42
2018-02-19T16:32:01.024Z,65.91
2018-02-19T16:34:29.425Z,65.91
2018-02-19T16:36:57.814Z,66.18
2018-02-19T16:39:26.261Z,66.40
2018-02-19T16:41:54.656Z,66.82
2018-02-19T16:44:23.038Z,67.28
2018-02-19T16:46:51.417Z,67.20
2018-02-19T16:49:19.786Z,67.32
2018-02-19T16:51:48.185Z,67.27
2018-02-19T16:54:16.639Z,68.00
2018-02-19T16:56:45.009Z,68.42
2018-02-19T16:59:13.499Z,68.75
2018-02-19T17:01:41.869Z,68.50
2018-02-19T17:04:10.322Z,69.14
2018-02-19T17:06:39.466Z,70.17
2018-02-19T17:09:07.832Z,70.68
2018-02-19T17:11:36.264Z,71.38
2018-02-19T17:14:04.678Z,71.73
2018-02-19T17:16:33.066Z,72.37
2018-02-19T17:19:01.451Z,72.61
2018-02-19T17:21:29.859Z,72.33
2018-02-19T17:23:58.225Z,72.69
2018-02-19T17:26:26.602Z,73.20
2018-02-19T17:28:55.069Z,72.79
2018-02-19T17:31:23.448Z,73.45
2018-02-19T17:33:51.833Z,73.61
2018-02-19T17:36:20.212Z,74.17
2018-02-19T17:38:48.590Z,74.71
2018-02-19T17:41:16.967Z,75.02
2018-02-19T17:43:45.346Z,75.35
2018-02-19T17:46:13.740Z,74.90
2018-02-19T17:48:42.140Z,75.22
2018-02-19T17:51:10.516Z,75.82
2018-02-19T17:53:38.909Z,76.40
2018-02-19T17:56:08.065Z,76.62
2018-02-19T17:58:36.436Z,76.85
2018-02-19T18:01:04.825Z,77.14
2018-02-19T18:03:33.220Z,77.05
2018-02-19T18:06:01.590Z,77.12
2018-02-19T18:08:30.050Z,77.09
2018-02-19T18:10:58.439Z,77.25
2018-02-19T18:13:26.804Z,77.62
2018-02-19T18:15:55.180Z,77.92
2018-02-19T18:18:23.550Z,77.80
2018-02-19T18:20:51.935Z,77.76
2018-02-19T18:23:20.325Z,77.72
2018-02-19T18:25:48.773Z,77.82
2018-02-19T18:28:17.158Z,78.12
2018-02-19T18:30:45.538Z,78.27
2018-02-19T18:33:14.021Z,78.35
2018-02-19T18:35:42.406Z,78.10
2018-02-19T18:38:10.775Z,77.97
2018-02-19T18:40:39.280Z,78.00
2018-02-19T18:43:07.637Z,77.97
2018-02-19T18:45:36.010Z,77.98
2018-02-19T18:48:04.389Z,78.20
2018-02-19T18:50:32.752Z,78.36
2018-02-19T18:53:01.969Z,78.29
2018-02-19T18:55:30.337Z,78.19
2018-02-19T18:57:58.700Z,78.08
2018-02-19T19:00:27.838Z,77.87
2018-02-19T19:02:56.218Z,77.88
2018-02-19T19:05:24.601Z,77.90
2018-02-19T19:08:10.982Z,77.78
2018-02-19T19:10:52.802Z,77.79
2018-02-19T19:13:21.223Z,77.26
2018-02-19T19:15:49.659Z,77.25
2018-02-19T19:18:18.061Z,77.77
2018-02-19T19:20:46.434Z,78.03
2018-02-19T19:23:15.606Z,78.37
2018-02-19T19:25:44.017Z,78.89
2018-02-19T19:28:12.386Z,79.20
2018-02-19T19:30:40.765Z,79.21
2018-02-19T19:33:09.148Z,79.35
2018-02-19T19:35:37.547Z,79.88
2018-02-19T19:38:06.685Z,79.59
2018-02-19T19:40:35.049Z,79.77
2018-02-19T19:43:03.475Z,79.97
2018-02-19T19:45:31.854Z,80.17
2018-02-19T19:48:00.221Z,80.22
2018-02-19T19:50:28.611Z,80.02
2018-02-19T19:52:56.999Z,79.95
2018-02-19T19:55:25.375Z,79.82
2018-02-19T19:57:53.810Z,79.83
2018-02-19T20:00:22.369Z,79.86
2018-02-19T20:02:50.744Z,79.78
2018-02-19T20:05:19.934Z,79.82
2018-02-19T20:07:49.130Z,79.78
2018-02-19T20:10:17.525Z,79.90
2018-02-19T20:12:45.985Z,79.77
2018-02-19T20:15:15.121Z,80.03
2018-02-19T20:17:43.618Z,80.16
2018-02-19T20:20:12.010Z,80.54
2018-02-19T20:22:40.439Z,80.80
2018-02-19T20:25:08.822Z,81.27
2018-02-19T20:27:37.246Z,81.33
2018-02-19T20:30:05.680Z,81.18
2018-02-19T20:32:34.049Z,81.24
2018-02-19T20:35:02.472Z,81.09
2018-02-19T20:37:30.880Z,80.86
2018-02-19T20:39:59.503Z,80.81
2018-02-19T20:42:28.260Z,80.95
2018-02-19T20:44:56.718Z,80.89
2018-02-19T20:47:25.625Z,80.79
2018-02-19T20:49:54.014Z,80.63
2018-02-19T20:52:23.164Z,80.55
2018-02-19T20:54:51.623Z,80.75
2018-02-19T20:57:20.110Z,80.65
2018-02-19T20:59:48.486Z,80.29
2018-02-19T21:02:16.856Z,80.02
2018-02-19T21:04:45.241Z,79.84
2018-02-19T21:07:13.646Z,79.76
2018-02-19T21:09:42.041Z,79.68
2018-02-19T21:12:10.438Z,79.65
2018-02-19T21:14:38.808Z,79.65
2018-02-19T21:17:07.239Z,79.80
2018-02-19T21:19:35.618Z,80.21
2018-02-19T21:22:03.987Z,80.63
2018-02-19T21:24:32.390Z,80.43
2018-02-19T21:27:00.857Z,80.24
2018-02-19T21:29:29.234Z,80.34
2018-02-19T21:31:57.738Z,80.50
2018-02-19T21:34:26.149Z,80.73
2018-02-19T21:36:54.617Z,80.68
2018-02-19T21:39:23.254Z,80.64
2018-02-19T21:41:51.649Z,80.63
2018-02-19T21:44:20.042Z,81.07
2018-02-19T21:46:48.461Z,81.07
2018-02-19T21:49:17.732Z,81.28
2018-02-19T21:51:46.100Z,81.56
2018-02-19T21:54:14.517Z,81.73
2018-02-19T21:56:43.732Z,81.92
2018-02-19T21:59:12.974Z,81.81
2018-02-19T22:01:41.935Z,81.75
2018-02-19T22:04:10.305Z,81.34
2018-02-19T22:06:38.698Z,81.72
2018-02-19T22:09:07.091Z,82.29
2018-02-19T22:11:35.493Z,82.26
2018-02-19T22:14:03.860Z,82.64
2018-02-19T22:16:32.226Z,83.14
2018-02-19T22:19:00.635Z,83.07
2018-02-19T22:21:29.744Z,82.82
2018-02-19T22:23:58.159Z,82.78
2018-02-19T22:26:26.661Z,83.21
2018-02-19T22:28:55.046Z,83.31
2018-02-19T22:31:23.464Z,83.10
2018-02-19T22:33:52.614Z,83.07
2018-02-19T22:36:21.018Z,82.66
2018-02-19T22:38:49.409Z,82.63
2018-02-19T22:41:17.805Z,82.55
2018-02-19T22:43:46.955Z,82.53
2018-02-19T22:46:15.392Z,82.48
2018-02-19T22:48:44.497Z,82.65
2018-02-19T22:51:12.988Z,82.81
2018-02-19T22:53:41.579Z,82.64
2018-02-19T22:56:10.022Z,82.44
2018-02-19T22:58:39.324Z,82.51
2018-02-19T23:01:08.478Z,82.80
2018-02-19T23:03:36.875Z,82.96
2018-02-19T23:06:05.297Z,83.00
2018-02-19T23:08:33.713Z,83.40
2018-02-19T23:11:02.091Z,84.12
2018-02-19T23:13:30.471Z,84.30
2018-02-19T23:15:58.893Z,84.49
2018-02-19T23:18:28.030Z,84.50
2018-02-19T23:20:56.397Z,84.40
2018-02-19T23:23:24.796Z,84.13
2018-02-19T23:25:53.258Z,84.51
2018-02-19T23:28:21.630Z,84.71
2018-02-19T23:30:50.037Z,84.83
2018-02-19T23:33:18.431Z,84.74
2018-02-19T23:35:46.809Z,84.63
2018-02-19T23:38:15.193Z,84.47
2018-02-19T23:40:43.562Z,84.84
2018-02-19T23:43:11.998Z,84.91
2018-02-19T23:45:40.381Z,84.83
2018-02-19T23:48:08.774Z,84.80
2018-02-19T23:50:37.184Z,84.98
2018-02-19T23:53:05.576Z,85.49
2018-02-19T23:55:33.966Z,85.76
2018-02-19T23:58:03.140Z,85.64
